sensor_id;sensor_type;location;lat;lon;timestamp;P1;durP1;ratioP1;P2;durP2;ratioP2
44197;SDS011;30157;55.512;37.764;2022-07-22T00:01:29;5.18;;;2.85;;
44197;SDS011;30157;55.512;37.764;2022-07-22T00:03:55;3.45;;;2.47;;
44197;SDS011;30157;55.512;37.764;2022-07-22T00:06:20;2.95;;;2.60;;
44197;SDS011;30157;55.512;37.764;2022-07-22T00:08:46;4.43;;;2.42;;
44197;SDS011;30157;55.512;37.764;2022-07-22T00:11:12;4.85;;;2.33;;
44197;SDS011;30157;55.512;37.764;2022-07-22T00:13:37;3.70;;;2.50;;
44197;SDS011;30157;55.512;37.764;2022-07-22T00:16:03;4.05;;;2.65;;
44197;SDS011;30157;55.512;37.764;2022-07-22T00:18:29;4.03;;;2.47;;
44197;SDS011;30157;55.512;37.764;2022-07-22T00:20:55;5.13;;;2.60;;
44197;SDS011;30157;55.512;37.764;2022-07-22T00:23:21;3.70;;;2.45;;
44197;SDS011;30157;55.512;37.764;2022-07-22T00:25:47;4.43;;;2.30;;
44197;SDS011;30157;55.512;37.764;2022-07-22T00:28:12;4.05;;;2.38;;
44197;SDS011;30157;55.512;37.764;2022-07-22T00:30:38;4.40;;;2.30;;
44197;SDS011;30157;55.512;37.764;2022-07-22T00:33:04;2.55;;;2.22;;
44197;SDS011;30157;55.512;37.764;2022-07-22T00:35:30;2.47;;;2.10;;
44197;SDS011;30157;55.512;37.764;2022-07-22T00:37:56;2.45;;;2.03;;
44197;SDS011;30157;55.512;37.764;2022-07-22T00:40:21;4.15;;;2.40;;
44197;SDS011;30157;55.512;37.764;2022-07-22T00:42:47;3.95;;;2.22;;
44197;SDS011;30157;55.512;37.764;2022-07-22T00:45:14;3.67;;;2.35;;
44197;SDS011;30157;55.512;37.764;2022-07-22T00:47:40;3.40;;;2.42;;
44197;SDS011;30157;55.512;37.764;2022-07-22T00:50:07;3.28;;;2.60;;
44197;SDS011;30157;55.512;37.764;2022-07-22T00:52:33;3.55;;;2.30;;
44197;SDS011;30157;55.512;37.764;2022-07-22T00:54:59;2.53;;;2.20;;
44197;SDS011;30157;55.512;37.764;2022-07-22T00:57:26;4.35;;;2.38;;
44197;SDS011;30157;55.512;37.764;2022-07-22T00:59:52;2.90;;;2.58;;
44197;SDS011;30157;55.512;37.764;2022-07-22T01:02:19;5.07;;;2.42;;
44197;SDS011;30157;55.512;37.764;2022-07-22T01:04:44;3.30;;;2.25;;
44197;SDS011;30157;55.512;37.764;2022-07-22T01:07:12;3.05;;;2.25;;
44197;SDS011;30157;55.512;37.764;2022-07-22T01:09:42;2.75;;;2.15;;
44197;SDS011;30157;55.512;37.764;2022-07-22T01:12:09;3.40;;;2.30;;
44197;SDS011;30157;55.512;37.764;2022-07-22T01:14:36;3.05;;;2.38;;
44197;SDS011;30157;55.512;37.764;2022-07-22T01:17:04;2.65;;;2.30;;
44197;SDS011;30157;55.512;37.764;2022-07-22T01:19:30;3.00;;;2.20;;
44197;SDS011;30157;55.512;37.764;2022-07-22T01:21:55;6.35;;;2.50;;
44197;SDS011;30157;55.512;37.764;2022-07-22T01:24:21;3.75;;;2.33;;
44197;SDS011;30157;55.512;37.764;2022-07-22T01:26:48;4.88;;;2.38;;
44197;SDS011;30157;55.512;37.764;2022-07-22T01:29:14;2.95;;;1.92;;
44197;SDS011;30157;55.512;37.764;2022-07-22T01:31:40;3.63;;;2.20;;
44197;SDS011;30157;55.512;37.764;2022-07-22T01:34:06;3.58;;;2.50;;
44197;SDS011;30157;55.512;37.764;2022-07-22T01:36:34;2.85;;;2.22;;
44197;SDS011;30157;55.512;37.764;2022-07-22T01:39:00;2.30;;;2.10;;
44197;SDS011;30157;55.512;37.764;2022-07-22T01:41:27;3.92;;;2.00;;
44197;SDS011;30157;55.512;37.764;2022-07-22T01:43:52;2.65;;;2.10;;
44197;SDS011;30157;55.512;37.764;2022-07-22T01:46:18;2.75;;;2.22;;
44197;SDS011;30157;55.512;37.764;2022-07-22T01:48:44;2.83;;;2.30;;
44197;SDS011;30157;55.512;37.764;2022-07-22T01:51:10;2.65;;;2.17;;
44197;SDS011;30157;55.512;37.764;2022-07-22T01:53:37;3.30;;;2.25;;
44197;SDS011;30157;55.512;37.764;2022-07-22T01:56:04;2.90;;;2.10;;
44197;SDS011;30157;55.512;37.764;2022-07-22T01:58:35;2.85;;;2.42;;
44197;SDS011;30157;55.512;37.764;2022-07-22T02:01:04;3.22;;;2.40;;
44197;SDS011;30157;55.512;37.764;2022-07-22T02:03:30;2.40;;;2.10;;
44197;SDS011;30157;55.512;37.764;2022-07-22T02:05:55;5.45;;;2.22;;
44197;SDS011;30157;55.512;37.764;2022-07-22T02:08:25;2.50;;;2.00;;
44197;SDS011;30157;55.512;37.764;2022-07-22T02:11:11;2.58;;;2.30;;
44197;SDS011;30157;55.512;37.764;2022-07-22T02:13:53;4.20;;;1.98;;
44197;SDS011;30157;55.512;37.764;2022-07-22T02:16:20;3.13;;;2.00;;
44197;SDS011;30157;55.512;37.764;2022-07-22T02:18:47;3.10;;;2.15;;
44197;SDS011;30157;55.512;37.764;2022-07-22T02:21:13;3.08;;;2.13;;
44197;SDS011;30157;55.512;37.764;2022-07-22T02:23:39;2.88;;;2.30;;
44197;SDS011;30157;55.512;37.764;2022-07-22T02:26:05;2.10;;;1.90;;
44197;SDS011;30157;55.512;37.764;2022-07-22T02:28:31;2.72;;;2.30;;
44197;SDS011;30157;55.512;37.764;2022-07-22T02:30:56;2.25;;;1.90;;
44197;SDS011;30157;55.512;37.764;2022-07-22T02:33:22;4.05;;;2.10;;
44197;SDS011;30157;55.512;37.764;2022-07-22T02:35:48;2.80;;;2.13;;
44197;SDS011;30157;55.512;37.764;2022-07-22T02:38:14;2.83;;;2.00;;
44197;SDS011;30157;55.512;37.764;2022-07-22T02:40:39;2.88;;;1.90;;
44197;SDS011;30157;55.512;37.764;2022-07-22T02:43:05;3.35;;;2.35;;
44197;SDS011;30157;55.512;37.764;2022-07-22T02:45:33;3.13;;;2.20;;
44197;SDS011;30157;55.512;37.764;2022-07-22T02:47:59;3.97;;;2.00;;
44197;SDS011;30157;55.512;37.764;2022-07-22T02:50:25;3.85;;;2.00;;
44197;SDS011;30157;55.512;37.764;2022-07-22T02:52:53;2.78;;;1.90;;
44197;SDS011;30157;55.512;37.764;2022-07-22T02:55:23;2.42;;;2.10;;
44197;SDS011;30157;55.512;37.764;2022-07-22T02:57:50;4.15;;;2.10;;
44197;SDS011;30157;55.512;37.764;2022-07-22T03:00:16;2.03;;;1.83;;
44197;SDS011;30157;55.512;37.764;2022-07-22T03:02:44;2.50;;;2.20;;
44197;SDS011;30157;55.512;37.764;2022-07-22T03:05:10;3.45;;;2.10;;
44197;SDS011;30157;55.512;37.764;2022-07-22T03:07:42;2.72;;;1.90;;
44197;SDS011;30157;55.512;37.764;2022-07-22T03:10:10;3.72;;;1.92;;
44197;SDS011;30157;55.512;37.764;2022-07-22T03:12:36;3.25;;;1.70;;
44197;SDS011;30157;55.512;37.764;2022-07-22T03:15:02;2.22;;;1.73;;
44197;SDS011;30157;55.512;37.764;2022-07-22T03:17:35;4.60;;;1.98;;
44197;SDS011;30157;55.512;37.764;2022-07-22T03:20:07;4.15;;;2.30;;
44197;SDS011;30157;55.512;37.764;2022-07-22T03:22:35;4.13;;;1.95;;
44197;SDS011;30157;55.512;37.764;2022-07-22T03:25:02;2.95;;;1.90;;
44197;SDS011;30157;55.512;37.764;2022-07-22T03:27:29;2.15;;;1.80;;
44197;SDS011;30157;55.512;37.764;2022-07-22T03:29:55;2.35;;;1.50;;
44197;SDS011;30157;55.512;37.764;2022-07-22T03:32:21;2.72;;;1.90;;
44197;SDS011;30157;55.512;37.764;2022-07-22T03:34:47;2.78;;;2.22;;
44197;SDS011;30157;55.512;37.764;2022-07-22T03:37:13;2.35;;;1.80;;
44197;SDS011;30157;55.512;37.764;2022-07-22T03:39:41;5.93;;;2.13;;
44197;SDS011;30157;55.512;37.764;2022-07-22T03:42:07;2.80;;;1.70;;
44197;SDS011;30157;55.512;37.764;2022-07-22T03:44:41;2.10;;;1.70;;
44197;SDS011;30157;55.512;37.764;2022-07-22T03:47:07;2.92;;;1.60;;
44197;SDS011;30157;55.512;37.764;2022-07-22T03:49:33;1.77;;;1.60;;
44197;SDS011;30157;55.512;37.764;2022-07-22T03:51:59;2.30;;;1.55;;
44197;SDS011;30157;55.512;37.764;2022-07-22T03:54:25;1.77;;;1.67;;
44197;SDS011;30157;55.512;37.764;2022-07-22T03:56:51;1.92;;;1.50;;
44197;SDS011;30157;55.512;37.764;2022-07-22T03:59:19;2.08;;;1.50;;
44197;SDS011;30157;55.512;37.764;2022-07-22T04:01:46;2.45;;;1.48;;
44197;SDS011;30157;55.512;37.764;2022-07-22T04:04:14;2.05;;;1.45;;
44197;SDS011;30157;55.512;37.764;2022-07-22T04:06:44;2.10;;;1.50;;
44197;SDS011;30157;55.512;37.764;2022-07-22T04:09:24;4.38;;;2.13;;
44197;SDS011;30157;55.512;37.764;2022-07-22T04:11:50;2.42;;;1.60;;
44197;SDS011;30157;55.512;37.764;2022-07-22T04:14:17;1.50;;;1.40;;
44197;SDS011;30157;55.512;37.764;2022-07-22T04:16:44;4.18;;;1.98;;
44197;SDS011;30157;55.512;37.764;2022-07-22T04:19:10;1.65;;;1.40;;
44197;SDS011;30157;55.512;37.764;2022-07-22T04:21:56;1.90;;;1.60;;
44197;SDS011;30157;55.512;37.764;2022-07-22T04:24:26;2.38;;;1.92;;
44197;SDS011;30157;55.512;37.764;2022-07-22T04:26:53;2.30;;;2.00;;
44197;SDS011;30157;55.512;37.764;2022-07-22T04:29:19;1.40;;;1.30;;
44197;SDS011;30157;55.512;37.764;2022-07-22T04:31:44;1.65;;;1.20;;
44197;SDS011;30157;55.512;37.764;2022-07-22T04:34:13;3.13;;;1.50;;
44197;SDS011;30157;55.512;37.764;2022-07-22T04:36:39;2.28;;;1.50;;
44197;SDS011;30157;55.512;37.764;2022-07-22T04:39:05;1.83;;;1.40;;
44197;SDS011;30157;55.512;37.764;2022-07-22T04:41:31;1.35;;;1.25;;
44197;SDS011;30157;55.512;37.764;2022-07-22T04:43:58;3.95;;;1.75;;
44197;SDS011;30157;55.512;37.764;2022-07-22T04:46:27;1.83;;;1.50;;
44197;SDS011;30157;55.512;37.764;2022-07-22T04:48:54;2.78;;;1.70;;
44197;SDS011;30157;55.512;37.764;2022-07-22T04:51:20;1.58;;;1.30;;
44197;SDS011;30157;55.512;37.764;2022-07-22T04:53:48;1.73;;;1.30;;
44197;SDS011;30157;55.512;37.764;2022-07-22T04:56:19;2.33;;;1.52;;
44197;SDS011;30157;55.512;37.764;2022-07-22T04:58:45;1.90;;;1.45;;
44197;SDS011;30157;55.512;37.764;2022-07-22T05:01:11;1.98;;;1.40;;
44197;SDS011;30157;55.512;37.764;2022-07-22T05:03:41;1.52;;;1.30;;
44197;SDS011;30157;55.512;37.764;2022-07-22T05:06:07;1.40;;;1.20;;
44197;SDS011;30157;55.512;37.764;2022-07-22T05:08:36;1.67;;;1.40;;
44197;SDS011;30157;55.512;37.764;2022-07-22T05:11:02;2.00;;;1.30;;
44197;SDS011;30157;55.512;37.764;2022-07-22T05:13:28;2.58;;;1.48;;
44197;SDS011;30157;55.512;37.764;2022-07-22T05:15:54;1.77;;;1.30;;
44197;SDS011;30157;55.512;37.764;2022-07-22T05:18:19;2.35;;;1.20;;
44197;SDS011;30157;55.512;37.764;2022-07-22T05:20:45;1.25;;;1.10;;
44197;SDS011;30157;55.512;37.764;2022-07-22T05:23:11;3.40;;;1.40;;
44197;SDS011;30157;55.512;37.764;2022-07-22T05:25:39;1.80;;;1.40;;
44197;SDS011;30157;55.512;37.764;2022-07-22T05:28:05;1.23;;;1.10;;
44197;SDS011;30157;55.512;37.764;2022-07-22T05:30:34;2.70;;;1.30;;
44197;SDS011;30157;55.512;37.764;2022-07-22T05:33:02;2.75;;;1.48;;
44197;SDS011;30157;55.512;37.764;2022-07-22T05:36:03;1.48;;;1.25;;
44197;SDS011;30157;55.512;37.764;2022-07-22T05:38:45;1.92;;;1.15;;
44197;SDS011;30157;55.512;37.764;2022-07-22T05:41:10;2.60;;;1.40;;
44197;SDS011;30157;55.512;37.764;2022-07-22T05:43:37;1.50;;;1.30;;
44197;SDS011;30157;55.512;37.764;2022-07-22T05:46:04;3.08;;;1.45;;
44197;SDS011;30157;55.512;37.764;2022-07-22T05:48:30;1.92;;;1.50;;
44197;SDS011;30157;55.512;37.764;2022-07-22T05:50:56;3.88;;;1.50;;
44197;SDS011;30157;55.512;37.764;2022-07-22T05:53:22;1.40;;;1.25;;
44197;SDS011;30157;55.512;37.764;2022-07-22T05:55:48;2.80;;;1.50;;
44197;SDS011;30157;55.512;37.764;2022-07-22T05:58:13;2.38;;;1.48;;
44197;SDS011;30157;55.512;37.764;2022-07-22T06:00:39;1.92;;;1.40;;
44197;SDS011;30157;55.512;37.764;2022-07-22T06:03:05;1.50;;;1.38;;
44197;SDS011;30157;55.512;37.764;2022-07-22T06:05:32;1.48;;;1.27;;
44197;SDS011;30157;55.512;37.764;2022-07-22T06:07:58;2.13;;;1.50;;
44197;SDS011;30157;55.512;37.764;2022-07-22T06:10:52;1.75;;;1.38;;
44197;SDS011;30157;55.512;37.764;2022-07-22T06:13:19;2.75;;;1.52;;
44197;SDS011;30157;55.512;37.764;2022-07-22T06:15:45;3.30;;;1.40;;
44197;SDS011;30157;55.512;37.764;2022-07-22T06:18:11;1.73;;;1.30;;
44197;SDS011;30157;55.512;37.764;2022-07-22T06:20:37;2.60;;;1.60;;
44197;SDS011;30157;55.512;37.764;2022-07-22T06:23:03;2.88;;;1.80;;
44197;SDS011;30157;55.512;37.764;2022-07-22T06:25:29;4.20;;;1.50;;
44197;SDS011;30157;55.512;37.764;2022-07-22T06:27:55;2.45;;;1.60;;
44197;SDS011;30157;55.512;37.764;2022-07-22T06:30:21;2.85;;;1.50;;
44197;SDS011;30157;55.512;37.764;2022-07-22T06:32:47;2.10;;;1.55;;
44197;SDS011;30157;55.512;37.764;2022-07-22T06:35:13;2.55;;;1.73;;
44197;SDS011;30157;55.512;37.764;2022-07-22T06:37:42;2.53;;;2.20;;
44197;SDS011;30157;55.512;37.764;2022-07-22T06:40:08;2.05;;;1.50;;
44197;SDS011;30157;55.512;37.764;2022-07-22T06:42:48;1.65;;;1.48;;
44197;SDS011;30157;55.512;37.764;2022-07-22T06:45:33;2.08;;;1.60;;
44197;SDS011;30157;55.512;37.764;2022-07-22T06:48:08;8.77;;;1.67;;
44197;SDS011;30157;55.512;37.764;2022-07-22T06:50:34;2.75;;;1.70;;
44197;SDS011;30157;55.512;37.764;2022-07-22T06:53:05;1.95;;;1.60;;
44197;SDS011;30157;55.512;37.764;2022-07-22T06:55:31;1.70;;;1.35;;
44197;SDS011;30157;55.512;37.764;2022-07-22T06:58:09;1.70;;;1.45;;
44197;SDS011;30157;55.512;37.764;2022-07-22T07:00:35;1.88;;;1.67;;
44197;SDS011;30157;55.512;37.764;2022-07-22T07:03:21;2.45;;;1.52;;
44197;SDS011;30157;55.512;37.764;2022-07-22T07:05:49;1.92;;;1.42;;
44197;SDS011;30157;55.512;37.764;2022-07-22T07:08:16;2.40;;;1.50;;
44197;SDS011;30157;55.512;37.764;2022-07-22T07:10:42;3.22;;;1.50;;
44197;SDS011;30157;55.512;37.764;2022-07-22T07:13:11;3.70;;;1.42;;
44197;SDS011;30157;55.512;37.764;2022-07-22T07:15:44;3.63;;;1.67;;
44197;SDS011;30157;55.512;37.764;2022-07-22T07:18:10;2.70;;;1.70;;
44197;SDS011;30157;55.512;37.764;2022-07-22T07:20:36;3.17;;;1.60;;
44197;SDS011;30157;55.512;37.764;2022-07-22T07:23:04;3.65;;;1.60;;
44197;SDS011;30157;55.512;37.764;2022-07-22T07:25:34;4.75;;;1.70;;
44197;SDS011;30157;55.512;37.764;2022-07-22T07:28:00;3.25;;;1.50;;
44197;SDS011;30157;55.512;37.764;2022-07-22T07:30:51;2.85;;;1.58;;
44197;SDS011;30157;55.512;37.764;2022-07-22T07:33:17;2.70;;;1.52;;
44197;SDS011;30157;55.512;37.764;2022-07-22T07:35:43;5.72;;;1.80;;
44197;SDS011;30157;55.512;37.764;2022-07-22T07:38:10;2.15;;;1.50;;
44197;SDS011;30157;55.512;37.764;2022-07-22T07:40:39;2.78;;;1.50;;
44197;SDS011;30157;55.512;37.764;2022-07-22T07:43:04;1.67;;;1.23;;
44197;SDS011;30157;55.512;37.764;2022-07-22T07:45:31;1.98;;;1.50;;
44197;SDS011;30157;55.512;37.764;2022-07-22T07:47:58;2.05;;;1.60;;
44197;SDS011;30157;55.512;37.764;2022-07-22T07:50:24;2.38;;;1.50;;
44197;SDS011;30157;55.512;37.764;2022-07-22T07:52:51;1.60;;;1.40;;
44197;SDS011;30157;55.512;37.764;2022-07-22T07:55:17;1.90;;;1.58;;
44197;SDS011;30157;55.512;37.764;2022-07-22T07:57:43;2.45;;;1.80;;
44197;SDS011;30157;55.512;37.764;2022-07-22T08:00:14;2.42;;;1.80;;
44197;SDS011;30157;55.512;37.764;2022-07-22T08:02:44;3.45;;;1.77;;
44197;SDS011;30157;55.512;37.764;2022-07-22T08:05:12;2.20;;;1.73;;
44197;SDS011;30157;55.512;37.764;2022-07-22T08:07:38;3.95;;;1.70;;
44197;SDS011;30157;55.512;37.764;2022-07-22T08:10:05;3.17;;;1.70;;
44197;SDS011;30157;55.512;37.764;2022-07-22T08:12:50;2.47;;;1.58;;
44197;SDS011;30157;55.512;37.764;2022-07-22T08:15:40;2.78;;;1.85;;
44197;SDS011;30157;55.512;37.764;2022-07-22T08:18:09;1.98;;;1.50;;
44197;SDS011;30157;55.512;37.764;2022-07-22T08:20:35;1.75;;;1.30;;
44197;SDS011;30157;55.512;37.764;2022-07-22T08:23:03;1.75;;;1.50;;
44197;SDS011;30157;55.512;37.764;2022-07-22T08:25:31;2.75;;;1.50;;
44197;SDS011;30157;55.512;37.764;2022-07-22T08:27:57;2.88;;;1.73;;
44197;SDS011;30157;55.512;37.764;2022-07-22T08:30:24;2.28;;;1.45;;
44197;SDS011;30157;55.512;37.764;2022-07-22T08:32:52;3.22;;;1.63;;
44197;SDS011;30157;55.512;37.764;2022-07-22T08:35:18;2.65;;;1.40;;
44197;SDS011;30157;55.512;37.764;2022-07-22T08:37:44;1.85;;;1.48;;
44197;SDS011;30157;55.512;37.764;2022-07-22T08:40:13;1.73;;;1.40;;
44197;SDS011;30157;55.512;37.764;2022-07-22T08:42:41;2.63;;;1.40;;
44197;SDS011;30157;55.512;37.764;2022-07-22T08:45:09;2.05;;;1.73;;
44197;SDS011;30157;55.512;37.764;2022-07-22T08:47:36;1.70;;;1.60;;
44197;SDS011;30157;55.512;37.764;2022-07-22T08:50:13;2.40;;;1.60;;
44197;SDS011;30157;55.512;37.764;2022-07-22T08:52:52;5.03;;;2.00;;
44197;SDS011;30157;55.512;37.764;2022-07-22T08:55:19;2.60;;;1.70;;
44197;SDS011;30157;55.512;37.764;2022-07-22T08:57:46;3.25;;;1.50;;
44197;SDS011;30157;55.512;37.764;2022-07-22T09:00:15;1.90;;;1.70;;
44197;SDS011;30157;55.512;37.764;2022-07-22T09:02:43;3.25;;;1.70;;
44197;SDS011;30157;55.512;37.764;2022-07-22T09:05:11;2.05;;;1.65;;
44197;SDS011;30157;55.512;37.764;2022-07-22T09:07:42;2.50;;;1.70;;
44197;SDS011;30157;55.512;37.764;2022-07-22T09:10:17;2.42;;;1.67;;
44197;SDS011;30157;55.512;37.764;2022-07-22T09:13:25;1.85;;;1.45;;
44197;SDS011;30157;55.512;37.764;2022-07-22T09:16:03;3.35;;;1.70;;
44197;SDS011;30157;55.512;37.764;2022-07-22T09:18:45;1.80;;;1.70;;
44197;SDS011;30157;55.512;37.764;2022-07-22T09:21:21;3.58;;;1.75;;
44197;SDS011;30157;55.512;37.764;2022-07-22T09:24:27;1.60;;;1.50;;
44197;SDS011;30157;55.512;37.764;2022-07-22T09:27:01;4.38;;;1.80;;
44197;SDS011;30157;55.512;37.764;2022-07-22T09:29:33;3.50;;;1.60;;
44197;SDS011;30157;55.512;37.764;2022-07-22T09:32:14;1.92;;;1.60;;
44197;SDS011;30157;55.512;37.764;2022-07-22T09:34:52;3.97;;;1.75;;
44197;SDS011;30157;55.512;37.764;2022-07-22T09:37:30;4.53;;;1.70;;
44197;SDS011;30157;55.512;37.764;2022-07-22T09:40:10;2.13;;;1.60;;
44197;SDS011;30157;55.512;37.764;2022-07-22T09:42:44;2.88;;;1.60;;
44197;SDS011;30157;55.512;37.764;2022-07-22T09:45:11;2.50;;;1.55;;
44197;SDS011;30157;55.512;37.764;2022-07-22T09:47:43;3.28;;;1.70;;
44197;SDS011;30157;55.512;37.764;2022-07-22T09:50:29;4.50;;;1.63;;
44197;SDS011;30157;55.512;37.764;2022-07-22T09:53:17;1.75;;;1.48;;
44197;SDS011;30157;55.512;37.764;2022-07-22T09:55:54;2.50;;;1.60;;
44197;SDS011;30157;55.512;37.764;2022-07-22T09:58:20;4.07;;;1.83;;
44197;SDS011;30157;55.512;37.764;2022-07-22T10:00:46;2.63;;;1.73;;
44197;SDS011;30157;55.512;37.764;2022-07-22T10:03:18;1.85;;;1.65;;
44197;SDS011;30157;55.512;37.764;2022-07-22T10:05:50;2.63;;;1.33;;
44197;SDS011;30157;55.512;37.764;2022-07-22T10:08:17;4.25;;;1.83;;
44197;SDS011;30157;55.512;37.764;2022-07-22T10:10:43;2.78;;;1.63;;
44197;SDS011;30157;55.512;37.764;2022-07-22T10:13:09;2.30;;;1.38;;
44197;SDS011;30157;55.512;37.764;2022-07-22T10:15:35;2.88;;;1.52;;
44197;SDS011;30157;55.512;37.764;2022-07-22T10:18:22;1.70;;;1.40;;
44197;SDS011;30157;55.512;37.764;2022-07-22T10:23:34;2.00;;;1.60;;
44197;SDS011;30157;55.512;37.764;2022-07-22T10:26:02;1.50;;;1.40;;
44197;SDS011;30157;55.512;37.764;2022-07-22T10:28:34;1.83;;;1.33;;
44197;SDS011;30157;55.512;37.764;2022-07-22T10:33:52;2.55;;;1.30;;
44197;SDS011;30157;55.512;37.764;2022-07-22T10:36:32;1.60;;;1.50;;
44197;SDS011;30157;55.512;37.764;2022-07-22T10:39:02;1.88;;;1.50;;
44197;SDS011;30157;55.512;37.764;2022-07-22T10:41:34;2.28;;;1.52;;
44197;SDS011;30157;55.512;37.764;2022-07-22T10:44:02;1.70;;;1.30;;
44197;SDS011;30157;55.512;37.764;2022-07-22T10:49:15;2.28;;;1.67;;
44197;SDS011;30157;55.512;37.764;2022-07-22T10:52:08;2.08;;;1.27;;
44197;SDS011;30157;55.512;37.764;2022-07-22T10:54:33;2.25;;;1.20;;
44197;SDS011;30157;55.512;37.764;2022-07-22T10:57:00;2.13;;;1.48;;
44197;SDS011;30157;55.512;37.764;2022-07-22T10:59:26;1.42;;;1.20;;
44197;SDS011;30157;55.512;37.764;2022-07-22T11:01:52;5.18;;;1.95;;
44197;SDS011;30157;55.512;37.764;2022-07-22T11:04:23;2.80;;;1.48;;
44197;SDS011;30157;55.512;37.764;2022-07-22T11:06:54;2.10;;;1.63;;
44197;SDS011;30157;55.512;37.764;2022-07-22T11:09:22;3.45;;;1.45;;
44197;SDS011;30157;55.512;37.764;2022-07-22T11:11:52;1.50;;;1.23;;
44197;SDS011;30157;55.512;37.764;2022-07-22T11:16:53;1.20;;;1.10;;
44197;SDS011;30157;55.512;37.764;2022-07-22T11:19:26;3.42;;;1.50;;
44197;SDS011;30157;55.512;37.764;2022-07-22T11:21:55;1.95;;;1.40;;
44197;SDS011;30157;55.512;37.764;2022-07-22T11:24:25;1.80;;;1.40;;
44197;SDS011;30157;55.512;37.764;2022-07-22T11:26:52;2.83;;;1.67;;
44197;SDS011;30157;55.512;37.764;2022-07-22T11:29:29;2.47;;;1.40;;
44197;SDS011;30157;55.512;37.764;2022-07-22T11:32:10;2.38;;;1.40;;
44197;SDS011;30157;55.512;37.764;2022-07-22T11:34:38;3.05;;;1.52;;
44197;SDS011;30157;55.512;37.764;2022-07-22T11:37:13;3.53;;;1.50;;
44197;SDS011;30157;55.512;37.764;2022-07-22T11:39:43;1.88;;;1.58;;
44197;SDS011;30157;55.512;37.764;2022-07-22T11:42:09;3.67;;;1.90;;
44197;SDS011;30157;55.512;37.764;2022-07-22T11:44:37;2.80;;;1.65;;
44197;SDS011;30157;55.512;37.764;2022-07-22T11:47:04;4.22;;;2.88;;
44197;SDS011;30157;55.512;37.764;2022-07-22T11:49:31;3.45;;;2.50;;
44197;SDS011;30157;55.512;37.764;2022-07-22T11:51:59;6.35;;;2.03;;
44197;SDS011;30157;55.512;37.764;2022-07-22T11:54:25;3.00;;;2.00;;
44197;SDS011;30157;55.512;37.764;2022-07-22T11:56:52;3.25;;;1.85;;
44197;SDS011;30157;55.512;37.764;2022-07-22T11:59:18;1.88;;;1.42;;
44197;SDS011;30157;55.512;37.764;2022-07-22T12:01:45;2.75;;;1.45;;
44197;SDS011;30157;55.512;37.764;2022-07-22T12:04:15;3.60;;;1.60;;
44197;SDS011;30157;55.512;37.764;2022-07-22T12:06:44;2.17;;;1.90;;
44197;SDS011;30157;55.512;37.764;2022-07-22T12:09:12;3.67;;;1.60;;
44197;SDS011;30157;55.512;37.764;2022-07-22T12:11:45;3.08;;;1.60;;
44197;SDS011;30157;55.512;37.764;2022-07-22T12:14:16;4.22;;;2.20;;
44197;SDS011;30157;55.512;37.764;2022-07-22T12:16:44;2.70;;;1.42;;
44197;SDS011;30157;55.512;37.764;2022-07-22T12:19:19;2.13;;;1.70;;
44197;SDS011;30157;55.512;37.764;2022-07-22T12:21:52;5.22;;;1.50;;
44197;SDS011;30157;55.512;37.764;2022-07-22T12:24:34;1.63;;;1.40;;
44197;SDS011;30157;55.512;37.764;2022-07-22T12:27:01;1.58;;;1.48;;
44197;SDS011;30157;55.512;37.764;2022-07-22T12:32:04;5.13;;;2.35;;
44197;SDS011;30157;55.512;37.764;2022-07-22T12:34:39;2.65;;;1.75;;
44197;SDS011;30157;55.512;37.764;2022-07-22T12:40:03;2.30;;;1.50;;
44197;SDS011;30157;55.512;37.764;2022-07-22T12:42:35;3.00;;;1.77;;
44197;SDS011;30157;55.512;37.764;2022-07-22T12:45:13;3.55;;;1.88;;
44197;SDS011;30157;55.512;37.764;2022-07-22T12:52:42;2.03;;;1.73;;
44197;SDS011;30157;55.512;37.764;2022-07-22T12:55:08;3.13;;;1.75;;
44197;SDS011;30157;55.512;37.764;2022-07-22T12:57:33;2.40;;;1.65;;
44197;SDS011;30157;55.512;37.764;2022-07-22T12:59:59;1.83;;;1.50;;
44197;SDS011;30157;55.512;37.764;2022-07-22T13:02:25;2.28;;;1.58;;
44197;SDS011;30157;55.512;37.764;2022-07-22T13:04:50;2.35;;;1.98;;
44197;SDS011;30157;55.512;37.764;2022-07-22T13:07:16;2.05;;;1.60;;
44197;SDS011;30157;55.512;37.764;2022-07-22T13:09:44;1.70;;;1.60;;
44197;SDS011;30157;55.512;37.764;2022-07-22T13:12:12;2.65;;;1.50;;
44197;SDS011;30157;55.512;37.764;2022-07-22T13:14:38;2.53;;;1.80;;
44197;SDS011;30157;55.512;37.764;2022-07-22T13:17:04;4.70;;;2.10;;
44197;SDS011;30157;55.512;37.764;2022-07-22T13:19:29;2.63;;;1.98;;
44197;SDS011;30157;55.512;37.764;2022-07-22T13:21:55;3.47;;;1.63;;
44197;SDS011;30157;55.512;37.764;2022-07-22T13:24:21;2.30;;;1.60;;
44197;SDS011;30157;55.512;37.764;2022-07-22T13:26:46;1.70;;;1.50;;
44197;SDS011;30157;55.512;37.764;2022-07-22T13:29:12;6.68;;;3.05;;
44197;SDS011;30157;55.512;37.764;2022-07-22T13:31:38;5.25;;;2.25;;
44197;SDS011;30157;55.512;37.764;2022-07-22T13:34:04;2.33;;;1.60;;
44197;SDS011;30157;55.512;37.764;2022-07-22T13:36:29;2.28;;;1.77;;
44197;SDS011;30157;55.512;37.764;2022-07-22T13:38:58;2.40;;;1.60;;
44197;SDS011;30157;55.512;37.764;2022-07-22T13:41:23;4.28;;;1.60;;
44197;SDS011;30157;55.512;37.764;2022-07-22T13:43:49;1.92;;;1.70;;
44197;SDS011;30157;55.512;37.764;2022-07-22T13:46:16;2.33;;;1.60;;
44197;SDS011;30157;55.512;37.764;2022-07-22T13:48:43;3.03;;;1.80;;
44197;SDS011;30157;55.512;37.764;2022-07-22T13:51:09;3.08;;;1.80;;
44197;SDS011;30157;55.512;37.764;2022-07-22T13:53:35;2.03;;;1.83;;
44197;SDS011;30157;55.512;37.764;2022-07-22T13:56:04;5.00;;;3.00;;
44197;SDS011;30157;55.512;37.764;2022-07-22T13:58:30;2.80;;;2.22;;
44197;SDS011;30157;55.512;37.764;2022-07-22T14:00:56;1.70;;;1.60;;
44197;SDS011;30157;55.512;37.764;2022-07-22T14:03:22;2.45;;;1.92;;
44197;SDS011;30157;55.512;37.764;2022-07-22T14:05:47;2.03;;;1.73;;
44197;SDS011;30157;55.512;37.764;2022-07-22T14:08:13;2.58;;;1.92;;
44197;SDS011;30157;55.512;37.764;2022-07-22T14:10:39;4.55;;;1.85;;
44197;SDS011;30157;55.512;37.764;2022-07-22T14:13:05;3.03;;;1.90;;
44197;SDS011;30157;55.512;37.764;2022-07-22T14:15:32;4.85;;;2.10;;
44197;SDS011;30157;55.512;37.764;2022-07-22T14:17:58;2.53;;;1.58;;
44197;SDS011;30157;55.512;37.764;2022-07-22T14:20:23;2.20;;;1.80;;
44197;SDS011;30157;55.512;37.764;2022-07-22T14:22:49;2.10;;;1.80;;
44197;SDS011;30157;55.512;37.764;2022-07-22T14:25:15;2.15;;;1.95;;
44197;SDS011;30157;55.512;37.764;2022-07-22T14:27:41;2.70;;;1.80;;
44197;SDS011;30157;55.512;37.764;2022-07-22T14:30:07;2.13;;;1.75;;
44197;SDS011;30157;55.512;37.764;2022-07-22T14:32:33;2.35;;;1.83;;
44197;SDS011;30157;55.512;37.764;2022-07-22T14:34:58;2.30;;;2.10;;
44197;SDS011;30157;55.512;37.764;2022-07-22T14:37:24;3.00;;;1.60;;
44197;SDS011;30157;55.512;37.764;2022-07-22T14:39:50;3.90;;;1.60;;
44197;SDS011;30157;55.512;37.764;2022-07-22T14:42:16;3.95;;;1.90;;
44197;SDS011;30157;55.512;37.764;2022-07-22T14:44:42;2.63;;;2.40;;
44197;SDS011;30157;55.512;37.764;2022-07-22T14:47:08;1.85;;;1.65;;
44197;SDS011;30157;55.512;37.764;2022-07-22T14:49:33;2.20;;;1.85;;
44197;SDS011;30157;55.512;37.764;2022-07-22T14:51:59;2.45;;;1.60;;
44197;SDS011;30157;55.512;37.764;2022-07-22T14:54:25;1.67;;;1.58;;
44197;SDS011;30157;55.512;37.764;2022-07-22T14:56:50;2.08;;;1.80;;
44197;SDS011;30157;55.512;37.764;2022-07-22T14:59:16;2.88;;;1.70;;
44197;SDS011;30157;55.512;37.764;2022-07-22T15:01:42;2.25;;;1.60;;
44197;SDS011;30157;55.512;37.764;2022-07-22T15:04:07;2.05;;;1.80;;